Weogufka, AL (35183)

5:44 AM CST on February 13, 2016 (GMT -0600)
Bird Creek | | Change Station
CLOSE
Current Station
Personal Weather Station
Location: Clanton, AL
Elevation: 331 ft
Nearby Weather Stations

Elev 331 ft 32.85 °N, 86.46 °W | Updated 6 minutes ago

Clear
Clear
33.8 °F
Feels Like 34 °F
N
0.0
Wind Variable Wind from NW

Today
High -- | Low -- °F
--% Chance of Precip.
Yesterday
High -- | Low -- °F
Precip. -- in
Pressure 30.33 in
Visibility 10.0 miles
Clouds Clear
Windchill 34 °F
Dew Point 18 °F
Humidity 52%
Rainfall 0.00 in
Snow Depth Not available.
6:31 AM 5:28 PM
Waxing Crescent, 30% visible
METAR KALX 131135Z AUTO 35006KT 10SM CLR 01/M05 A3033 RMK AO2 T00051052
Pressure 30.33 in
Visibility 10.0 miles
Clouds Clear
Windchill 34 °F
Dew Point 18 °F
Humidity 52%
Rainfall 0.00 in
Snow Depth Not available.
6:31 AM 5:28 PM
Waxing Crescent, 30% visible
METAR KALX 131135Z AUTO 35006KT 10SM CLR 01/M05 A3033 RMK AO2 T00051052

10-Day Weather Forecast

Almanac

Astronomy

Feb. 13, 2016 Rise Set
Actual Time
Civil Twilight
Nautical Twilight
Astronomical Twilight
Moon
Length of Visible Light
Length of Day
Tomorrow will be .
, % of the Moon is Illuminated

Today's Extremes

State Highs State Lows

Community

WunderPhotos

Upload Photos

1,892,541 photos uploaded!

WunderBlog® & News

Nearby

Air Quality

  Air Quality AQ Index Pollutant
Not available.

Snow Depth

Station Depth Elevation

Earthquake Activity

City Distance Mag. Time & Date
Minimum magnitude displayed is 2.5.

Coastal Water Temperatures

Place Temperature

Stations

Nearby Weather Stations

Station Location Temp. Windchill Dew Point Humidity Wind Precip. Elev Updated Type
                   

Watches & Warnings

There are currently no watches in effect.